Home   Weather   USA   New York   Past weeks
Flag for USA

Past Weather in New York, New York, USA — July 2018

Currently: 65 °F. Overcast. (Weather station: New York City - Central Park, USA). See more current weather

July 2018 Weather in New York — Graph

°F

High & Low Weather Summary for July 2018

 TemperatureHumidityPressure
High95 °F (Jul 1, 1:51 pm)100% (Jul 12, 6:34 am)30.38 "Hg (Jul 12, 6:34 am)
Low63 °F (Jul 7, 4:51 am)27% (Jul 10, 3:51 pm)29.75 "Hg (Jul 17, 1:51 pm)
Average77 °F71%30.06 "Hg
* Reported Jul 1 12:51 am — Jul 31 11:51 pm, New York. Weather by CustomWeather, © 2021

Note: Actual official high and low records may vary slightly from our data, if they occured in-between our weather recording intervals... More about our weather records

New York Weather History for July 1, 2018

Scroll right to see more
 ConditionsComfort  
Time TempWeatherWind HumidityBarometerVisibility
12:51 am
Sun, Jul 1
84 °FClear.5 mph53%29.99 "Hg10 mi
1:51 am83 °FClear.No wind55%29.99 "Hg10 mi
2:51 am81 °FClear.5 mph60%29.99 "Hg10 mi
3:51 am81 °FClear.5 mph60%30.00 "Hg10 mi
4:51 am80 °FClear.No wind62%30.02 "Hg10 mi
5:51 am79 °FSunny.3 mph67%30.03 "Hg9 mi
6:51 am80 °FSunny.3 mph67%30.04 "Hg9 mi
7:51 am82 °FSunny.5 mph63%30.04 "Hg8 mi
8:51 am84 °FSunny.3 mph61%30.03 "Hg8 mi
9:51 am85 °FSunny.No wind61%30.03 "Hg8 mi
10:51 am88 °FSunny.No wind57%30.03 "Hg8 mi
11:51 am92 °FSunny.No wind51%30.03 "Hg8 mi
12:51 pm94 °FSunny.No wind44%30.02 "Hg9 mi
1:51 pm95 °FSunny.3 mph43%30.01 "Hg10 mi
2:51 pm94 °FSunny.No wind46%29.99 "Hg10 mi
3:51 pm94 °FSunny.No wind48%29.98 "Hg9 mi
4:51 pm91 °FSunny.5 mph49%29.99 "Hg9 mi
5:51 pm92 °FSunny.No wind47%29.98 "Hg10 mi
6:51 pm90 °FSunny.3 mph50%29.98 "Hg9 mi
7:51 pm89 °FSunny.5 mph50%29.98 "Hg9 mi
8:51 pm88 °FClear.7 mph52%29.98 "Hg9 mi
9:51 pm88 °FClear.8 mph55%30.00 "Hg9 mi
10:51 pm87 °FClear.N/A57%30.01 "Hg9 mi
11:51 pm87 °FClear.6 mph57%30.03 "Hg9 mi
Weather by CustomWeather, © 2021

See weather overview